Time;durP1;ratioP1;P1;durP2;ratioP2;P2;SDS_P1;SDS_P2;PMS_P1;PMS_P2;Temp;Humidity;BMP_temperature;BMP_pressure;BME280_temperature;BME280_humidity;BME280_pressure;Samples;Min_cycle;Max_cycle;Signal;HPM_P1;HPM_P2
2023/08/10 00:01:09;;;;;;;4.75;2.40;;;14.80;99.90;;;;;;5044592;28;20062;-57
2023/08/10 00:03:35;;;;;;;6.97;2.55;;;14.70;99.90;;;;;;5069919;28;20051;-58
2023/08/10 00:06:01;;;;;;;8.55;2.95;;;14.70;99.90;;;;;;5053037;28;20126;-56
2023/08/10 00:08:27;;;;;;;8.02;2.90;;;14.70;99.90;;;;;;5067353;28;20123;-58
2023/08/10 00:10:54;;;;;;;8.95;3.10;;;14.70;99.90;;;;;;5069627;28;20051;-57
2023/08/10 00:13:19;;;;;;;5.28;2.72;;;14.70;99.90;;;;;;5069991;28;20032;-56
2023/08/10 00:15:45;;;;;;;5.53;2.65;;;14.70;99.90;;;;;;5050552;28;20036;-57
2023/08/10 00:18:11;;;;;;;9.35;3.08;;;14.70;99.90;;;;;;5069874;28;20036;-57
2023/08/10 00:20:37;;;;;;;10.75;2.95;;;14.70;99.90;;;;;;5064934;28;20355;-57
2023/08/10 00:23:03;;;;;;;5.78;2.60;;;14.60;99.90;;;;;;5062927;28;20255;-56
2023/08/10 00:25:29;;;;;;;5.88;2.90;;;14.60;99.90;;;;;;5068276;28;20045;-55
2023/08/10 00:27:55;;;;;;;7.40;3.38;;;14.60;99.90;;;;;;5058788;28;20536;-57
2023/08/10 00:30:21;;;;;;;5.50;2.70;;;14.60;99.90;;;;;;5065449;28;20058;-57
2023/08/10 00:32:47;;;;;;;7.25;2.97;;;14.60;99.90;;;;;;5068626;28;20487;-57
2023/08/10 00:35:13;;;;;;;7.13;3.08;;;14.60;99.90;;;;;;5066717;28;20079;-57
2023/08/10 00:37:39;;;;;;;6.93;2.63;;;14.60;99.90;;;;;;5087517;28;20089;-56
2023/08/10 00:40:09;;;;;;;8.55;3.13;;;14.60;99.90;;;;;;5063471;28;20434;-58
2023/08/10 00:42:34;;;;;;;5.00;2.60;;;14.50;99.90;;;;;;5066319;28;20036;-57
2023/08/10 00:45:00;;;;;;;5.13;2.30;;;14.50;99.90;;;;;;5065079;28;20476;-57
2023/08/10 00:47:26;;;;;;;5.97;2.88;;;14.50;99.90;;;;;;5066821;28;20510;-57
2023/08/10 00:49:53;;;;;;;7.55;2.47;;;14.40;99.90;;;;;;5062780;28;20044;-57
2023/08/10 00:52:18;;;;;;;6.03;2.70;;;14.40;99.90;;;;;;5062684;28;20031;-57
2023/08/10 00:54:44;;;;;;;4.03;2.13;;;14.40;99.90;;;;;;5067415;28;20044;-54
2023/08/10 00:57:11;;;;;;;7.00;3.15;;;14.30;99.90;;;;;;5066900;28;20545;-56
2023/08/10 00:59:38;;;;;;;7.40;3.05;;;14.20;99.90;;;;;;5065927;28;20047;-58
2023/08/10 01:02:04;;;;;;;6.53;3.13;;;14.20;99.90;;;;;;5065986;28;20062;-57
2023/08/10 01:04:30;;;;;;;9.02;3.05;;;14.10;99.90;;;;;;5045229;28;20040;-58
2023/08/10 01:07:33;;;;;;;4.55;2.25;;;14.10;99.90;;;;;;5065782;28;20411;-57
2023/08/10 01:10:29;;;;;;;6.60;2.65;;;14.10;99.90;;;;;;5057868;28;20229;-57
2023/08/10 01:13:22;;;;;;;5.97;3.03;;;14.00;99.90;;;;;;5061872;28;20051;-58
2023/08/10 01:16:12;;;;;;;5.45;2.42;;;13.90;99.90;;;;;;5055862;28;20044;-58
2023/08/10 01:19:17;;;;;;;4.75;2.08;;;13.90;99.90;;;;;;5053365;28;20059;-58
2023/08/10 01:22:02;;;;;;;7.22;3.13;;;13.90;99.90;;;;;;5067533;28;20040;-57
2023/08/10 01:24:41;;;;;;;6.15;3.28;;;13.80;99.90;;;;;;5067751;28;20410;-55
2023/08/10 01:27:10;;;;;;;15.52;3.47;;;13.80;99.90;;;;;;5069123;28;20557;-56
2023/08/10 01:29:36;;;;;;;5.07;2.38;;;13.80;99.90;;;;;;5056846;28;20076;-57
2023/08/10 01:32:03;;;;;;;6.47;2.22;;;13.80;99.90;;;;;;5064443;28;20071;-57
2023/08/10 01:34:28;;;;;;;7.18;2.45;;;13.80;99.90;;;;;;5049766;28;20515;-54
2023/08/10 01:36:54;;;;;;;4.45;2.40;;;13.80;99.90;;;;;;5058625;28;20334;-54
2023/08/10 01:39:20;;;;;;;7.43;2.72;;;13.70;99.90;;;;;;5065594;28;20083;-57
2023/08/10 01:41:46;;;;;;;4.03;2.30;;;13.70;99.90;;;;;;5051293;28;20036;-57
2023/08/10 01:44:11;;;;;;;9.23;3.15;;;13.60;99.90;;;;;;5050881;28;20043;-56
2023/08/10 01:46:40;;;;;;;6.97;2.75;;;13.60;99.90;;;;;;5070300;28;20567;-55
2023/08/10 01:49:11;;;;;;;7.50;3.00;;;13.60;99.90;;;;;;5070180;28;20571;-54
2023/08/10 01:51:39;;;;;;;6.05;2.80;;;13.50;99.90;;;;;;5049599;28;20425;-57
2023/08/10 01:54:07;;;;;;;6.55;2.85;;;13.50;99.90;;;;;;5054826;28;20036;-56
2023/08/10 01:56:33;;;;;;;4.25;2.95;;;13.40;99.90;;;;;;5072695;28;20501;-56
2023/08/10 01:58:59;;;;;;;7.07;2.60;;;13.40;99.90;;;;;;5070704;28;20050;-55
2023/08/10 02:01:25;;;;;;;9.98;2.88;;;13.40;99.90;;;;;;5071862;28;20052;-55
2023/08/10 02:03:51;;;;;;;5.88;2.53;;;13.40;99.90;;;;;;5070479;28;20086;-56
2023/08/10 02:06:17;;;;;;;6.80;2.60;;;13.40;99.90;;;;;;5070238;28;20459;-58
2023/08/10 02:08:43;;;;;;;6.97;3.35;;;13.40;99.90;;;;;;5052327;28;20117;-58
2023/08/10 02:11:09;;;;;;;4.57;2.78;;;13.30;99.90;;;;;;5069873;28;20028;-57
2023/08/10 02:13:34;;;;;;;5.35;3.05;;;13.30;99.90;;;;;;5071092;28;20430;-57
2023/08/10 02:16:00;;;;;;;7.15;2.50;;;13.30;99.90;;;;;;5060057;28;20044;-57
2023/08/10 02:18:26;;;;;;;4.75;2.85;;;13.30;99.90;;;;;;5078770;28;20481;-55
2023/08/10 02:20:52;;;;;;;4.60;2.65;;;13.20;99.90;;;;;;5067847;28;20123;-57
2023/08/10 02:23:17;;;;;;;3.90;2.30;;;13.20;99.90;;;;;;5061503;28;20100;-56
2023/08/10 02:25:43;;;;;;;6.40;2.67;;;13.20;99.90;;;;;;5070141;28;20039;-57
2023/08/10 02:28:09;;;;;;;4.72;2.40;;;13.20;99.90;;;;;;5067363;28;20051;-53
2023/08/10 02:30:35;;;;;;;6.43;2.83;;;13.10;99.90;;;;;;5082501;28;20533;-58
2023/08/10 02:33:00;;;;;;;6.40;3.05;;;13.20;99.90;;;;;;5057386;28;20039;-57
2023/08/10 02:35:26;;;;;;;3.55;2.67;;;13.30;99.90;;;;;;5089928;28;20051;-57
2023/08/10 02:37:52;;;;;;;6.80;2.47;;;13.30;99.90;;;;;;5076773;28;20048;-57
2023/08/10 02:40:18;;;;;;;6.28;3.08;;;13.30;99.90;;;;;;5051140;28;20043;-56
2023/08/10 02:42:43;;;;;;;6.32;2.65;;;13.30;99.90;;;;;;5069199;28;20044;-58
2023/08/10 02:45:10;;;;;;;4.22;2.83;;;13.30;99.90;;;;;;5056940;28;20052;-57
2023/08/10 02:47:36;;;;;;;4.78;3.00;;;13.30;99.90;;;;;;5055287;28;20072;-57
2023/08/10 02:50:02;;;;;;;5.05;2.70;;;13.30;99.90;;;;;;5074154;28;20035;-58
2023/08/10 02:52:28;;;;;;;4.70;3.60;;;13.30;99.90;;;;;;5064923;28;20483;-57
2023/08/10 02:54:54;;;;;;;6.15;3.35;;;13.30;99.90;;;;;;5054072;28;20135;-55
2023/08/10 02:57:20;;;;;;;7.03;4.13;;;13.40;99.90;;;;;;5085681;28;20067;-58
2023/08/10 02:59:45;;;;;;;8.18;3.35;;;13.40;99.90;;;;;;5038724;28;20036;-58
2023/08/10 03:02:16;;;;;;;6.47;3.80;;;13.40;99.90;;;;;;5072307;28;20254;-56
2023/08/10 03:04:42;;;;;;;6.72;3.65;;;13.40;99.90;;;;;;5058145;28;20512;-57
2023/08/10 03:07:07;;;;;;;7.90;4.07;;;13.40;99.90;;;;;;5066387;28;20039;-57
2023/08/10 03:09:33;;;;;;;7.95;5.00;;;13.40;99.90;;;;;;5071290;28;20055;-57
2023/08/10 03:11:59;;;;;;;6.00;4.00;;;13.50;99.90;;;;;;5056494;28;20079;-56
2023/08/10 03:14:24;;;;;;;9.25;4.47;;;13.40;99.90;;;;;;5058657;28;20040;-57
2023/08/10 03:16:50;;;;;;;5.78;4.55;;;13.40;99.90;;;;;;5066357;28;20074;-57
2023/08/10 03:19:16;;;;;;;6.57;3.63;;;13.50;99.90;;;;;;5067984;28;20039;-58
2023/08/10 03:21:42;;;;;;;5.43;3.90;;;13.50;99.90;;;;;;5052163;28;20047;-58
2023/08/10 03:24:07;;;;;;;6.78;4.05;;;13.50;99.90;;;;;;5066348;28;20063;-57
2023/08/10 03:26:33;;;;;;;5.70;3.15;;;13.50;99.90;;;;;;5054658;28;20048;-58
2023/08/10 03:28:59;;;;;;;5.13;3.85;;;13.50;99.90;;;;;;5069432;28;20080;-58
2023/08/10 03:31:24;;;;;;;7.40;3.75;;;13.60;99.90;;;;;;5063066;28;20108;-58
2023/08/10 03:33:50;;;;;;;7.65;3.67;;;13.60;99.90;;;;;;5065588;28;20066;-55
2023/08/10 03:36:16;;;;;;;8.02;3.58;;;13.60;99.90;;;;;;5069191;28;20048;-58
2023/08/10 03:38:42;;;;;;;7.18;4.07;;;13.70;99.90;;;;;;5059502;28;20051;-58
2023/08/10 03:41:07;;;;;;;7.78;3.30;;;13.70;99.90;;;;;;5065252;28;20133;-58
2023/08/10 03:43:33;;;;;;;7.30;3.33;;;13.70;99.90;;;;;;5069400;28;20062;-58
2023/08/10 03:46:02;;;;;;;6.30;4.55;;;13.70;99.90;;;;;;5068713;28;20027;-57
2023/08/10 03:48:28;;;;;;;8.45;3.58;;;13.70;99.90;;;;;;5065820;28;20418;-58
2023/08/10 03:50:53;;;;;;;8.55;4.00;;;13.80;99.90;;;;;;5062319;28;20040;-57
2023/08/10 03:53:19;;;;;;;8.10;3.65;;;13.80;99.90;;;;;;5068218;28;20359;-58
2023/08/10 03:56:24;;;;;;;6.43;3.53;;;13.80;99.90;;;;;;5054669;28;20050;-55
2023/08/10 03:58:50;;;;;;;5.75;3.00;;;13.90;99.90;;;;;;5069357;28;20403;-57
2023/08/10 04:01:15;;;;;;;5.40;3.47;;;13.90;99.90;;;;;;5046643;28;20043;-58
2023/08/10 04:03:41;;;;;;;3.30;2.72;;;13.90;99.90;;;;;;5062438;28;20048;-57
2023/08/10 04:06:07;;;;;;;8.38;4.05;;;13.90;99.90;;;;;;5061271;28;20045;-58
2023/08/10 04:08:33;;;;;;;7.45;3.38;;;13.90;99.90;;;;;;5063851;28;20559;-55
2023/08/10 04:10:59;;;;;;;8.75;4.47;;;14.00;99.90;;;;;;5067831;28;20064;-57
2023/08/10 04:13:24;;;;;;;5.32;3.55;;;14.00;99.90;;;;;;5073374;28;20090;-58
2023/08/10 04:15:50;;;;;;;4.72;2.75;;;14.00;99.90;;;;;;5074231;28;20096;-57
2023/08/10 04:18:16;;;;;;;5.82;3.10;;;14.00;99.90;;;;;;5057764;28;20044;-58
2023/08/10 04:20:42;;;;;;;8.70;3.70;;;14.00;99.90;;;;;;5077409;22;20042;-54
2023/08/10 04:23:07;;;;;;;4.85;3.15;;;14.00;99.90;;;;;;5050956;28;20048;-53
2023/08/10 04:25:34;;;;;;;5.57;3.20;;;14.10;99.90;;;;;;5050861;28;20041;-54
2023/08/10 04:28:01;;;;;;;9.40;3.38;;;14.10;99.90;;;;;;5033217;28;20040;-54
2023/08/10 04:30:29;;;;;;;4.28;2.90;;;14.10;99.90;;;;;;5068875;28;20049;-54
2023/08/10 04:32:56;;;;;;;6.05;3.63;;;14.20;99.90;;;;;;5070741;28;20096;-53
2023/08/10 04:35:22;;;;;;;7.72;3.20;;;14.20;99.90;;;;;;5021735;28;20503;-54
2023/08/10 04:37:49;;;;;;;5.05;3.28;;;14.20;99.90;;;;;;5033692;28;20043;-54
2023/08/10 04:40:14;;;;;;;5.85;3.60;;;14.20;99.90;;;;;;5037483;28;20183;-54
2023/08/10 04:42:40;;;;;;;7.55;3.20;;;14.20;99.90;;;;;;5026897;28;20068;-51
2023/08/10 04:45:09;;;;;;;5.95;2.95;;;14.20;99.90;;;;;;5052426;28;20040;-55
2023/08/10 04:47:35;;;;;;;7.20;3.00;;;14.30;99.90;;;;;;5041724;28;20047;-52
2023/08/10 04:50:02;;;;;;;8.63;2.95;;;14.30;99.90;;;;;;5049768;28;20036;-54
2023/08/10 04:52:28;;;;;;;6.43;3.47;;;14.30;99.90;;;;;;5043329;28;20043;-55
2023/08/10 04:54:54;;;;;;;5.88;3.50;;;14.30;99.90;;;;;;5025656;28;20336;-51
2023/08/10 04:57:20;;;;;;;4.80;3.17;;;14.30;99.90;;;;;;5043158;28;20500;-54
2023/08/10 04:59:46;;;;;;;8.77;3.28;;;14.30;99.90;;;;;;5041085;28;20039;-53
2023/08/10 05:02:13;;;;;;;5.60;3.20;;;14.40;99.90;;;;;;5048060;28;20042;-54
2023/08/10 05:04:38;;;;;;;6.40;3.38;;;14.40;99.90;;;;;;5034667;28;20503;-52
2023/08/10 05:07:04;;;;;;;7.03;2.75;;;14.40;99.90;;;;;;5047668;28;20047;-54
2023/08/10 05:09:30;;;;;;;6.05;3.13;;;14.50;99.90;;;;;;5066692;28;20087;-54
2023/08/10 05:11:56;;;;;;;4.82;3.05;;;14.50;99.90;;;;;;5048741;28;20089;-54
2023/08/10 05:14:22;;;;;;;4.68;2.65;;;14.50;99.90;;;;;;5064287;28;20040;-55
2023/08/10 05:16:47;;;;;;;6.90;2.80;;;14.60;99.90;;;;;;5043367;28;20050;-53
2023/08/10 05:19:13;;;;;;;6.35;2.90;;;14.60;99.90;;;;;;5065288;28;20031;-52
2023/08/10 05:21:39;;;;;;;6.57;3.13;;;14.60;99.90;;;;;;5045207;28;20063;-54
2023/08/10 05:24:06;;;;;;;4.85;2.60;;;14.70;99.90;;;;;;5053840;28;20115;-54
2023/08/10 05:26:32;;;;;;;4.10;2.83;;;14.80;99.90;;;;;;5051565;28;20048;-55
2023/08/10 05:28:58;;;;;;;6.80;3.20;;;14.80;99.90;;;;;;5050325;28;20295;-54
2023/08/10 05:31:24;;;;;;;6.22;3.28;;;14.80;99.90;;;;;;5046639;28;20040;-52
2023/08/10 05:33:49;;;;;;;5.65;2.95;;;14.90;99.90;;;;;;5036704;28;20031;-55
2023/08/10 05:36:16;;;;;;;8.98;3.60;;;14.90;99.90;;;;;;5055403;28;20162;-54
2023/08/10 05:38:44;;;;;;;6.25;3.42;;;15.00;99.90;;;;;;5064742;28;20032;-54
2023/08/10 05:41:10;;;;;;;4.93;2.97;;;15.00;99.90;;;;;;5043663;28;20075;-53
2023/08/10 05:43:35;;;;;;;4.07;3.08;;;15.10;99.90;;;;;;5037954;28;20045;-55
2023/08/10 05:46:01;;;;;;;4.53;2.70;;;15.20;99.90;;;;;;5036263;28;20262;-53
2023/08/10 05:48:27;;;;;;;4.22;2.40;;;15.20;99.90;;;;;;5029733;28;20049;-54
2023/08/10 05:50:53;;;;;;;6.32;3.00;;;15.30;99.90;;;;;;5058159;28;20040;-51
2023/08/10 05:53:19;;;;;;;5.13;2.63;;;15.30;99.90;;;;;;5048018;28;20118;-54
2023/08/10 05:55:44;;;;;;;10.48;3.30;;;15.40;99.90;;;;;;5053067;28;20045;-53
2023/08/10 05:58:10;;;;;;;5.07;2.63;;;15.40;99.90;;;;;;5049532;28;20048;-54
2023/08/10 06:00:39;;;;;;;5.65;2.58;;;15.50;99.90;;;;;;5048195;28;20403;-53
2023/08/10 06:03:05;;;;;;;5.50;1.95;;;15.50;99.90;;;;;;5048542;28;20108;-54
2023/08/10 06:05:31;;;;;;;5.28;2.30;;;15.60;99.90;;;;;;5039990;28;20170;-53
2023/08/10 06:07:58;;;;;;;5.38;3.20;;;15.70;99.90;;;;;;5046276;28;20048;-53
2023/08/10 06:10:25;;;;;;;4.82;2.38;;;15.80;99.90;;;;;;5031468;28;20047;-54
2023/08/10 06:12:51;;;;;;;6.75;3.15;;;15.80;99.90;;;;;;5031953;28;20043;-54
2023/08/10 06:15:17;;;;;;;7.03;2.78;;;15.90;99.90;;;;;;5047709;28;20048;-53
2023/08/10 06:17:44;;;;;;;4.22;2.45;;;16.00;99.90;;;;;;5055339;28;20047;-53
2023/08/10 06:20:16;;;;;;;3.38;2.08;;;16.00;99.90;;;;;;5026475;28;20384;-54
2023/08/10 06:22:43;;;;;;;5.22;2.85;;;16.00;99.90;;;;;;5037081;28;20082;-54
2023/08/10 06:25:09;;;;;;;6.78;2.50;;;16.10;99.90;;;;;;5047921;28;20058;-54
2023/08/10 06:27:35;;;;;;;3.70;2.10;;;16.10;99.90;;;;;;5033181;28;20210;-54
2023/08/10 06:30:03;;;;;;;7.32;2.90;;;16.10;99.90;;;;;;5063360;28;20029;-53
2023/08/10 06:32:29;;;;;;;4.57;2.17;;;16.20;99.90;;;;;;5042179;28;20037;-54
2023/08/10 06:34:54;;;;;;;5.45;2.58;;;16.30;99.90;;;;;;5032121;28;20048;-54
2023/08/10 06:37:20;;;;;;;7.07;2.60;;;16.30;99.90;;;;;;5048930;28;20045;-54
2023/08/10 06:39:46;;;;;;;3.88;2.33;;;16.40;99.90;;;;;;5053445;28;20491;-55
2023/08/10 06:42:12;;;;;;;4.47;2.00;;;16.40;99.90;;;;;;5058148;28;20318;-54
2023/08/10 06:44:38;;;;;;;4.68;2.10;;;16.40;99.90;;;;;;5049382;28;20052;-54
2023/08/10 06:47:04;;;;;;;3.78;2.00;;;16.50;99.90;;;;;;5066616;28;20047;-51
2023/08/10 06:49:29;;;;;;;7.18;1.98;;;16.50;99.90;;;;;;5020751;28;20376;-54
2023/08/10 06:51:55;;;;;;;8.65;2.80;;;16.60;99.90;;;;;;5037092;28;20039;-51
2023/08/10 06:54:21;;;;;;;4.68;2.25;;;16.60;99.90;;;;;;5031006;28;20028;-53
2023/08/10 06:56:47;;;;;;;9.82;3.05;;;16.60;99.90;;;;;;5051550;28;20045;-54
2023/08/10 06:59:13;;;;;;;5.95;2.53;;;16.70;99.90;;;;;;5064990;28;20047;-51
2023/08/10 07:02:17;;;;;;;4.57;2.30;;;16.70;99.90;;;;;;5062666;28;20055;-56
2023/08/10 07:04:44;;;;;;;6.40;2.28;;;16.80;99.90;;;;;;5046437;28;20044;-53
2023/08/10 07:07:10;;;;;;;6.85;2.22;;;16.90;99.90;;;;;;5023644;28;20047;-54
2023/08/10 07:09:36;;;;;;;5.20;1.73;;;16.90;99.90;;;;;;5027888;28;20040;-55
2023/08/10 07:12:03;;;;;;;3.90;1.50;;;17.00;99.90;;;;;;5069005;28;20032;-52
2023/08/10 07:14:29;;;;;;;6.47;1.90;;;17.00;99.90;;;;;;5048140;28;20076;-53
2023/08/10 07:16:55;;;;;;;4.20;1.80;;;17.10;99.90;;;;;;5034746;28;20101;-53
2023/08/10 07:19:21;;;;;;;5.20;1.50;;;17.10;99.90;;;;;;5045377;28;20044;-56
2023/08/10 07:21:46;;;;;;;7.70;1.95;;;17.10;99.90;;;;;;5048067;28;20047;-55
2023/08/10 07:24:12;;;;;;;6.38;1.75;;;17.20;99.90;;;;;;5052346;28;20040;-55
2023/08/10 07:26:38;;;;;;;3.78;1.10;;;17.30;99.90;;;;;;5068810;28;20037;-53
2023/08/10 07:29:04;;;;;;;5.20;1.73;;;17.30;99.90;;;;;;5070271;28;20032;-54
2023/08/10 07:31:31;;;;;;;4.10;1.80;;;17.30;99.90;;;;;;5064476;28;20037;-54
2023/08/10 07:34:00;;;;;;;4.82;1.70;;;17.30;99.90;;;;;;5047471;28;20139;-53
2023/08/10 07:36:26;;;;;;;10.10;1.50;;;17.40;99.90;;;;;;5052473;28;20434;-58
2023/08/10 07:38:55;;;;;;;3.80;1.30;;;17.50;99.90;;;;;;5046663;28;20032;-54
2023/08/10 07:41:21;;;;;;;3.85;1.45;;;17.50;99.90;;;;;;5054037;28;20133;-55
2023/08/10 07:43:47;;;;;;;4.53;1.50;;;17.60;99.90;;;;;;5063710;28;20036;-54
2023/08/10 07:46:13;;;;;;;1.95;1.10;;;17.60;99.90;;;;;;5055510;28;20040;-55
2023/08/10 07:48:39;;;;;;;2.50;1.20;;;17.70;99.90;;;;;;5065257;28;20051;-56
2023/08/10 07:51:06;;;;;;;4.88;1.23;;;17.80;99.90;;;;;;5044875;28;20132;-54
2023/08/10 07:53:33;;;;;;;5.68;1.80;;;17.80;99.90;;;;;;5015841;28;20047;-54
2023/08/10 07:55:59;;;;;;;3.90;1.52;;;17.80;99.90;;;;;;5048697;28;20368;-54
2023/08/10 07:58:25;;;;;;;5.18;1.33;;;17.80;99.90;;;;;;5063377;28;20043;-55
2023/08/10 08:00:51;;;;;;;4.28;1.15;;;17.90;99.90;;;;;;5038564;28;20081;-55
2023/08/10 08:03:17;;;;;;;4.55;1.63;;;17.90;99.90;;;;;;5070939;28;20522;-55
2023/08/10 08:05:43;;;;;;;3.28;1.20;;;17.90;99.90;;;;;;5045332;28;20056;-54
2023/08/10 08:08:58;;;;;;;2.95;1.00;;;17.90;99.90;;;;;;5063856;28;20491;-55
2023/08/10 08:11:24;;;;;;;4.20;0.95;;;17.90;99.90;;;;;;5049521;28;20037;-55
2023/08/10 08:13:51;;;;;;;4.57;1.30;;;18.00;99.90;;;;;;5071231;28;20121;-53
2023/08/10 08:16:17;;;;;;;5.63;1.70;;;18.00;99.90;;;;;;5056530;28;20498;-52
2023/08/10 08:18:47;;;;;;;4.10;1.45;;;18.10;99.90;;;;;;5049250;28;20068;-53
2023/08/10 08:21:17;;;;;;;4.18;1.48;;;18.10;99.90;;;;;;5043011;28;20216;-57
2023/08/10 08:23:44;;;;;;;3.22;1.20;;;18.20;99.90;;;;;;5031673;28;20044;-54
2023/08/10 08:26:11;;;;;;;2.97;1.23;;;18.20;99.90;;;;;;5050136;28;20449;-54
2023/08/10 08:28:37;;;;;;;4.50;1.48;;;18.10;99.90;;;;;;5062988;28;20036;-54
2023/08/10 08:31:03;;;;;;;7.28;1.73;;;18.10;99.90;;;;;;5062270;28;20538;-55
2023/08/10 08:33:30;;;;;;;7.72;1.92;;;18.10;99.90;;;;;;5035945;28;20496;-54
2023/08/10 08:35:56;;;;;;;5.78;1.30;;;18.20;99.90;;;;;;5057817;28;20104;-53
2023/08/10 08:38:21;;;;;;;3.42;1.45;;;18.20;99.90;;;;;;5049106;28;20590;-55
2023/08/10 08:40:50;;;;;;;5.40;1.17;;;18.30;99.90;;;;;;5066420;28;20037;-56
2023/08/10 08:43:17;;;;;;;5.93;1.38;;;18.30;99.90;;;;;;5045377;28;20582;-53
2023/08/10 08:45:44;;;;;;;6.25;1.48;;;18.30;99.90;;;;;;5060071;28;20084;-54
2023/08/10 08:48:14;;;;;;;4.95;1.30;;;18.40;99.90;;;;;;5043323;28;20043;-54
2023/08/10 08:50:40;;;;;;;5.72;1.50;;;18.40;99.90;;;;;;5043654;28;20311;-56
2023/08/10 08:53:08;;;;;;;5.25;1.27;;;18.40;99.90;;;;;;5047515;28;20028;-56
2023/08/10 08:55:34;;;;;;;3.15;1.10;;;18.30;99.90;;;;;;5037414;28;20068;-55
2023/08/10 08:58:01;;;;;;;4.05;1.15;;;18.30;99.90;;;;;;5041409;28;20040;-54
2023/08/10 09:00:27;;;;;;;4.00;1.33;;;18.30;99.90;;;;;;5054696;28;20279;-55
2023/08/10 09:02:53;;;;;;;3.53;1.55;;;18.30;99.90;;;;;;5057619;28;20047;-56
2023/08/10 09:05:19;;;;;;;7.40;2.05;;;18.30;99.90;;;;;;5055023;28;20048;-55
2023/08/10 09:07:45;;;;;;;7.13;1.73;;;18.30;99.90;;;;;;5048989;28;20044;-55
2023/08/10 09:10:11;;;;;;;4.97;1.70;;;18.40;99.90;;;;;;5062763;28;20037;-52
2023/08/10 09:12:39;;;;;;;4.32;1.02;;;18.30;99.90;;;;;;5048043;28;20227;-53
2023/08/10 09:15:10;;;;;;;5.70;2.00;;;18.30;99.90;;;;;;5043630;28;20044;-55
2023/08/10 09:17:48;;;;;;;3.85;1.45;;;18.30;99.90;;;;;;5041930;28;20086;-58
2023/08/10 09:20:28;;;;;;;6.78;1.40;;;18.20;99.90;;;;;;5041258;28;20119;-54
2023/08/10 09:22:56;;;;;;;6.15;2.00;;;18.20;99.90;;;;;;5032102;28;20037;-54
2023/08/10 09:25:22;;;;;;;2.20;1.23;;;18.20;99.90;;;;;;5017696;28;20491;-53
2023/08/10 09:27:49;;;;;;;3.47;1.50;;;18.20;99.90;;;;;;5052711;28;20438;-54
2023/08/10 09:30:16;;;;;;;5.07;1.33;;;18.30;99.90;;;;;;5039667;28;20041;-54
2023/08/10 09:32:42;;;;;;;5.78;1.35;;;18.30;99.90;;;;;;5039368;28;20037;-55
2023/08/10 09:35:17;;;;;;;4.78;1.48;;;18.30;99.90;;;;;;5029049;28;20553;-55
2023/08/10 09:38:19;;;;;;;5.57;1.70;;;18.40;99.90;;;;;;5035917;28;20052;-52
2023/08/10 09:40:44;;;;;;;6.00;2.00;;;18.40;99.90;;;;;;5047313;28;20044;-55
2023/08/10 09:43:10;;;;;;;4.88;1.38;;;18.50;99.90;;;;;;5031195;28;20476;-55
2023/08/10 09:45:36;;;;;;;5.95;1.98;;;18.50;99.90;;;;;;5062257;28;20140;-54
2023/08/10 09:48:10;;;;;;;3.92;1.23;;;18.60;99.90;;;;;;5064845;28;20052;-54
2023/08/10 09:50:36;;;;;;;6.13;1.30;;;18.70;99.90;;;;;;5046540;28;20036;-54
2023/08/10 09:53:01;;;;;;;4.65;1.58;;;18.80;99.90;;;;;;5043727;28;20045;-55
2023/08/10 09:55:28;;;;;;;7.85;1.63;;;18.80;99.90;;;;;;5033560;28;20036;-54
2023/08/10 09:57:54;;;;;;;3.63;1.42;;;18.90;99.90;;;;;;5029796;28;20040;-52
2023/08/10 10:00:22;;;;;;;4.78;1.35;;;18.90;99.90;;;;;;5050054;28;20032;-56
2023/08/10 10:02:48;;;;;;;4.60;1.60;;;18.90;99.90;;;;;;5047675;28;20433;-55
2023/08/10 10:05:19;;;;;;;5.30;1.30;;;18.90;99.90;;;;;;5062874;28;20049;-56
2023/08/10 10:07:46;;;;;;;5.53;1.15;;;19.00;99.90;;;;;;5051355;28;20517;-54
2023/08/10 10:10:15;;;;;;;3.53;1.35;;;19.10;99.90;;;;;;5051990;28;20087;-54
2023/08/10 10:12:42;;;;;;;4.72;1.60;;;19.10;99.90;;;;;;5066893;28;20567;-51
2023/08/10 10:15:10;;;;;;;5.90;1.60;;;19.10;99.90;;;;;;5061649;28;20082;-56
2023/08/10 10:17:36;;;;;;;4.43;1.50;;;19.20;99.90;;;;;;5065485;28;20068;-54
2023/08/10 10:20:04;;;;;;;5.13;2.00;;;19.30;99.90;;;;;;5050811;28;20125;-53
2023/08/10 10:22:31;;;;;;;4.25;1.60;;;19.30;99.90;;;;;;5076900;22;20056;-60
2023/08/10 10:24:57;;;;;;;3.58;1.65;;;19.40;99.90;;;;;;5070344;28;20491;-61
2023/08/10 10:27:39;;;;;;;5.28;1.77;;;19.50;99.90;;;;;;5059851;28;20554;-60
2023/08/10 10:30:16;;;;;;;4.43;1.60;;;19.70;99.90;;;;;;5068278;28;20070;-60
2023/08/10 10:32:48;;;;;;;4.95;1.48;;;19.80;99.90;;;;;;5070714;28;20045;-61
2023/08/10 10:35:31;;;;;;;7.35;2.55;;;19.90;99.90;;;;;;5058351;28;20052;-59
2023/08/10 10:37:58;;;;;;;7.97;2.17;;;20.00;99.90;;;;;;5060210;28;20045;-60
2023/08/10 10:40:26;;;;;;;3.05;1.83;;;20.10;99.90;;;;;;5036109;28;20056;-61
2023/08/10 10:43:00;;;;;;;6.03;2.03;;;20.20;99.90;;;;;;5065027;28;20041;-62
2023/08/10 10:45:26;;;;;;;6.85;2.72;;;20.20;99.90;;;;;;5036686;28;20096;-61
2023/08/10 10:47:54;;;;;;;5.90;2.10;;;20.20;99.90;;;;;;5035703;28;20044;-61
2023/08/10 10:50:22;;;;;;;7.13;3.15;;;20.20;99.90;;;;;;5043333;28;20049;-62
2023/08/10 10:52:59;;;;;;;4.15;2.00;;;20.20;99.90;;;;;;5042155;28;20686;-64
2023/08/10 10:55:37;;;;;;;5.63;2.33;;;20.20;99.90;;;;;;5028222;28;20672;-61
2023/08/10 10:58:04;;;;;;;4.45;2.00;;;20.30;99.90;;;;;;5036614;28;20549;-62
2023/08/10 11:00:30;;;;;;;6.95;2.20;;;20.30;99.90;;;;;;5049355;28;20040;-61
2023/08/10 11:02:56;;;;;;;4.18;2.05;;;20.30;99.90;;;;;;5047051;28;20111;-63
2023/08/10 11:05:22;;;;;;;7.30;2.58;;;20.30;99.90;;;;;;5038629;28;20600;-64
2023/08/10 11:07:51;;;;;;;6.10;2.40;;;20.30;99.90;;;;;;5041294;28;20175;-63
2023/08/10 11:10:21;;;;;;;5.38;2.20;;;20.40;99.90;;;;;;5033195;28;20094;-61
2023/08/10 11:12:48;;;;;;;5.20;2.30;;;20.60;99.90;;;;;;5048127;28;20037;-61
2023/08/10 11:15:16;;;;;;;8.73;2.20;;;20.50;99.90;;;;;;5044253;28;20041;-61
2023/08/10 11:17:48;;;;;;;4.97;2.70;;;20.60;99.90;;;;;;5045949;28;20123;-62
2023/08/10 11:20:15;;;;;;;5.95;2.50;;;20.70;99.90;;;;;;5031357;28;20515;-63
2023/08/10 11:22:45;;;;;;;4.93;2.40;;;20.70;99.90;;;;;;5032945;28;20098;-61
2023/08/10 11:25:25;;;;;;;5.45;2.47;;;20.70;99.90;;;;;;5036261;28;20079;-61
2023/08/10 11:27:52;;;;;;;4.25;2.10;;;20.70;99.90;;;;;;5049044;28;20047;-63
2023/08/10 11:30:22;;;;;;;4.85;2.47;;;20.60;99.90;;;;;;5045088;28;20036;-62
2023/08/10 11:32:50;;;;;;;3.20;2.17;;;20.60;99.90;;;;;;5044130;28;20108;-61
2023/08/10 11:35:24;;;;;;;6.03;2.50;;;20.50;99.90;;;;;;5046845;28;20078;-61
2023/08/10 11:37:51;;;;;;;5.65;2.10;;;20.50;99.90;;;;;;5048385;28;20044;-64
2023/08/10 11:40:18;;;;;;;5.80;2.13;;;20.40;99.90;;;;;;5049225;28;20063;-62
2023/08/10 11:42:47;;;;;;;5.15;2.25;;;20.30;99.90;;;;;;5039346;28;20044;-61
2023/08/10 11:45:22;;;;;;;5.28;2.35;;;20.30;99.90;;;;;;5046421;28;20041;-62
2023/08/10 11:47:52;;;;;;;5.35;2.53;;;20.30;99.90;;;;;;5039313;28;20052;-60
2023/08/10 11:50:20;;;;;;;6.30;2.58;;;20.20;99.90;;;;;;5045950;28;20104;-64
2023/08/10 11:52:49;;;;;;;7.57;3.17;;;20.10;99.90;;;;;;5031067;28;20128;-62
2023/08/10 11:55:16;;;;;;;6.53;2.88;;;20.10;99.90;;;;;;5052311;28;20041;-61
2023/08/10 11:57:51;;;;;;;6.68;2.90;;;20.10;99.90;;;;;;5038944;28;20398;-61
2023/08/10 12:00:23;;;;;;;8.25;3.35;;;20.10;99.90;;;;;;5052893;28;20033;-61
2023/08/10 12:03:11;;;;;;;6.00;3.13;;;20.00;99.90;;;;;;5039650;28;21155;-64
2023/08/10 12:05:37;;;;;;;4.60;2.72;;;20.00;99.90;;;;;;5046079;28;20485;-61
2023/08/10 12:08:10;;;;;;;4.82;3.05;;;20.00;99.90;;;;;;5044346;28;20043;-62
2023/08/10 12:10:41;;;;;;;5.38;2.97;;;20.00;99.90;;;;;;5049226;28;20045;-64
2023/08/10 12:13:15;;;;;;;4.07;2.70;;;19.90;99.90;;;;;;5046997;28;20040;-61
2023/08/10 12:15:46;;;;;;;5.82;3.10;;;19.90;99.90;;;;;;5028088;28;20072;-61
2023/08/10 12:18:12;;;;;;;6.45;3.58;;;19.90;99.90;;;;;;5033769;28;20048;-61
2023/08/10 12:20:38;;;;;;;11.07;3.05;;;19.90;99.90;;;;;;5047946;28;20547;-63
2023/08/10 12:23:03;;;;;;;5.60;2.92;;;19.90;99.90;;;;;;5052554;28;20191;-64
2023/08/10 12:25:29;;;;;;;5.47;3.25;;;19.90;99.90;;;;;;5049491;28;20131;-64
2023/08/10 12:27:55;;;;;;;6.15;3.22;;;20.00;99.90;;;;;;5032077;28;20033;-61
2023/08/10 12:30:21;;;;;;;7.53;3.78;;;20.00;99.90;;;;;;5042696;28;20051;-61
2023/08/10 12:32:47;;;;;;;4.07;3.17;;;20.10;99.90;;;;;;5026817;28;20098;-60
2023/08/10 12:35:14;;;;;;;6.65;3.20;;;20.10;99.90;;;;;;5045385;28;20033;-61
2023/08/10 12:37:40;;;;;;;6.28;3.92;;;20.20;99.90;;;;;;5036455;28;20423;-64
2023/08/10 12:40:06;;;;;;;6.50;3.63;;;20.20;99.90;;;;;;5041370;28;20124;-60
2023/08/10 12:42:31;;;;;;;5.22;3.22;;;20.20;99.90;;;;;;5042224;28;20428;-60
2023/08/10 12:44:57;;;;;;;5.70;3.30;;;20.20;99.90;;;;;;5043142;28;20036;-60
2023/08/10 12:47:23;;;;;;;4.85;3.70;;;20.30;99.90;;;;;;5048173;28;20610;-60
2023/08/10 12:49:49;;;;;;;6.20;3.85;;;20.30;99.90;;;;;;5041346;28;20097;-60